Time;durP1;ratioP1;P1;durP2;ratioP2;P2;SDS_P1;SDS_P2;PMS_P1;PMS_P2;Temp;Humidity;BMP_temperature;BMP_pressure;BME280_temperature;BME280_humidity;BME280_pressure;Samples;Min_cycle;Max_cycle;Signal;HPM_P1;HPM_P2
2021/03/18 00:01:31;;;;;;;12.07;6.47;;;;;;;-0.83;77.12;100295.70;253195;1105;115896;-62
2021/03/18 00:06:37;;;;;;;9.88;4.80;;;;;;;-0.92;77.71;100294.00;253769;1104;115066;-65
2021/03/18 00:11:46;;;;;;;11.25;5.90;;;;;;;-0.94;78.13;100291.52;253465;1105;114471;-64
2021/03/18 00:16:50;;;;;;;10.45;6.00;;;;;;;-0.91;77.34;100287.77;254646;1105;114981;-65
2021/03/18 00:21:54;;;;;;;10.60;5.75;;;;;;;-0.91;77.22;100288.59;254676;1104;114959;-65
2021/03/18 00:26:58;;;;;;;10.65;5.47;;;;;;;-0.87;76.93;100289.94;254703;1104;115358;-65
2021/03/18 00:32:02;;;;;;;11.10;5.22;;;;;;;-0.86;76.68;100296.00;254790;1103;115570;-65
2021/03/18 00:37:06;;;;;;;9.45;6.15;;;;;;;-0.85;76.84;100284.56;254826;1104;114912;-65
2021/03/18 00:42:10;;;;;;;13.75;5.85;;;;;;;-0.82;76.75;100284.27;254765;1105;114618;-65
2021/03/18 00:47:13;;;;;;;14.93;7.10;;;;;;;-0.85;78.37;100276.70;253066;1104;115475;-62
2021/03/18 00:52:18;;;;;;;13.32;6.95;;;;;;;-0.93;78.09;100281.88;253707;1104;115785;-62
2021/03/18 00:57:23;;;;;;;11.90;5.78;;;;;;;-0.95;77.93;100276.80;253965;1104;115008;-63
2021/03/18 01:02:26;;;;;;;11.48;7.28;;;;;;;-0.98;77.49;100273.64;253765;1105;115247;-65
2021/03/18 01:07:31;;;;;;;16.65;7.00;;;;;;;-1.05;77.79;100276.84;254215;1104;115305;-64
2021/03/18 01:12:37;;;;;;;17.82;7.37;;;;;;;-1.10;77.29;100275.63;253503;1105;115095;-66
2021/03/18 01:17:41;;;;;;;11.53;7.60;;;;;;;-1.15;78.52;100273.45;253618;1105;135743;-62
2021/03/18 01:22:45;;;;;;;13.18;10.18;;;;;;;-1.18;78.48;100270.30;253231;1105;115677;-65
2021/03/18 01:27:49;;;;;;;15.85;6.60;;;;;;;-1.24;78.74;100266.50;252975;1105;115212;-65
2021/03/18 01:32:53;;;;;;;14.53;8.33;;;;;;;-1.29;79.34;100268.72;252916;1105;115093;-62
2021/03/18 01:37:58;;;;;;;17.05;8.05;;;;;;;-1.33;79.13;100264.75;253326;1105;115458;-62
2021/03/18 01:43:03;;;;;;;14.95;8.95;;;;;;;-1.37;79.52;100261.59;252531;1105;115544;-62
2021/03/18 01:48:06;;;;;;;12.47;7.55;;;;;;;-1.38;78.60;100265.18;253362;1105;114819;-62
2021/03/18 01:53:10;;;;;;;15.72;8.90;;;;;;;-1.41;79.60;100269.88;253561;1105;114955;-62
2021/03/18 01:58:15;;;;;;;14.78;8.18;;;;;;;-1.42;80.55;100260.38;252457;1105;115181;-63
2021/03/18 02:03:17;;;;;;;18.75;7.90;;;;;;;-1.43;80.67;100254.33;253615;1104;115032;-62
2021/03/18 02:08:21;;;;;;;17.32;9.75;;;;;;;-1.52;79.33;100251.74;254218;1105;115508;-62
2021/03/18 02:13:25;;;;;;;12.93;8.03;;;;;;;-1.60;81.00;100247.26;253849;1104;114678;-62
2021/03/18 02:19:07;;;;;;;17.20;7.17;;;;;;;-1.64;80.36;100247.69;252468;1105;114996;-62
2021/03/18 02:24:18;;;;;;;10.53;7.75;;;;;;;-1.69;80.84;100248.11;254698;1105;114947;-65
2021/03/18 02:29:59;;;;;;;11.88;8.65;;;;;;;-1.74;80.41;100251.16;254369;1105;114911;-64
2021/03/18 02:35:29;;;;;;;14.03;7.55;;;;;;;-1.76;80.43;100253.08;254433;1104;117571;-64
2021/03/18 02:40:37;;;;;;;16.15;7.25;;;;;;;-1.83;81.61;100259.02;255090;1104;116561;-64
2021/03/18 02:45:52;;;;;;;12.35;6.12;;;;;;;-1.85;80.04;100251.34;254858;1104;116049;-65
2021/03/18 02:50:56;;;;;;;13.25;6.70;;;;;;;-1.75;81.53;100254.73;254763;1104;117876;-64
2021/03/18 02:56:06;;;;;;;18.65;8.30;;;;;;;-1.59;82.99;100254.14;254247;1104;118400;-64
2021/03/18 03:01:09;;;;;;;16.37;8.30;;;;;;;-1.57;82.55;100248.77;254000;1105;118752;-62
2021/03/18 03:06:19;;;;;;;12.03;7.80;;;;;;;-1.57;82.85;100251.38;253638;1104;115834;-64
2021/03/18 03:11:24;;;;;;;15.48;6.47;;;;;;;-1.56;82.20;100250.41;251997;1105;116188;-61
2021/03/18 03:16:30;;;;;;;18.37;7.92;;;;;;;-1.67;82.05;100248.80;253198;1104;116548;-62
2021/03/18 03:21:34;;;;;;;12.25;7.35;;;;;;;-1.80;81.75;100256.94;253038;1105;116622;-62
2021/03/18 03:26:39;;;;;;;18.15;8.85;;;;;;;-1.84;82.59;100246.95;252131;1105;114883;-62
2021/03/18 03:31:44;;;;;;;13.43;8.00;;;;;;;-1.87;83.25;100250.66;252707;1105;115811;-61
2021/03/18 03:36:49;;;;;;;16.12;9.93;;;;;;;-1.84;83.69;100247.77;253151;1104;116327;-62
2021/03/18 03:41:52;;;;;;;20.43;9.30;;;;;;;-1.85;83.66;100246.12;252676;1105;115856;-62
2021/03/18 03:46:55;;;;;;;14.33;9.08;;;;;;;-1.83;82.98;100252.00;252821;1105;115757;-62
2021/03/18 03:52:07;;;;;;;25.17;13.25;;;;;;;-1.80;84.08;100246.48;252358;1104;116924;-62
2021/03/18 03:57:11;;;;;;;23.85;12.98;;;;;;;-1.72;83.88;100241.38;253120;1104;115922;-62
2021/03/18 04:02:16;;;;;;;23.62;12.63;;;;;;;-1.65;83.33;100248.66;251880;1105;116665;-61
2021/03/18 04:07:33;;;;;;;21.05;12.20;;;;;;;-1.69;83.71;100250.73;251595;1105;117722;-61
2021/03/18 04:12:43;;;;;;;30.92;15.50;;;;;;;-1.65;83.59;100254.70;253249;1104;116307;-61
2021/03/18 04:17:52;;;;;;;29.27;15.55;;;;;;;-1.66;83.32;100249.62;253072;1105;115896;-63
2021/03/18 04:23:00;;;;;;;36.60;19.48;;;;;;;-1.60;83.31;100254.28;253262;1105;115041;-64
2021/03/18 04:28:09;;;;;;;32.10;13.88;;;;;;;-1.62;84.15;100253.59;253777;1104;115786;-62
2021/03/18 04:33:15;;;;;;;26.02;13.35;;;;;;;-1.62;82.72;100251.80;254643;1104;115488;-65
2021/03/18 04:38:19;;;;;;;25.02;14.10;;;;;;;-1.68;82.95;100243.71;254488;1105;114974;-64
2021/03/18 04:43:24;;;;;;;22.60;13.05;;;;;;;-1.71;83.75;100250.87;253175;1105;114964;-62
2021/03/18 04:48:29;;;;;;;22.87;13.55;;;;;;;-1.63;84.53;100252.77;254613;1105;115874;-63
2021/03/18 04:53:32;;;;;;;21.02;10.32;;;;;;;-1.55;84.40;100258.11;254299;1105;115037;-64
2021/03/18 04:58:39;;;;;;;21.20;13.43;;;;;;;-1.43;83.78;100259.55;254454;1105;115683;-64
2021/03/18 05:03:45;;;;;;;25.20;11.57;;;;;;;-1.29;83.79;100258.27;254578;1104;118440;-64
2021/03/18 05:08:52;;;;;;;23.52;12.80;;;;;;;-1.24;83.48;100257.83;253164;1105;116090;-63
2021/03/18 05:13:57;;;;;;;16.60;8.48;;;;;;;-1.19;83.38;100251.16;253393;1104;116753;-63
2021/03/18 05:19:04;;;;;;;16.32;10.50;;;;;;;-1.09;83.73;100257.17;251629;1105;116103;-64
2021/03/18 05:24:10;;;;;;;13.90;8.95;;;;;;;-1.09;83.92;100251.94;253232;1104;117009;-62
2021/03/18 05:29:16;;;;;;;22.10;10.98;;;;;;;-0.96;83.01;100250.77;254085;1105;116273;-62
2021/03/18 05:34:21;;;;;;;9.80;6.62;;;;;;;-1.00;83.01;100249.41;252487;1105;116202;-63
2021/03/18 05:39:25;;;;;;;14.07;9.28;;;;;;;-0.92;82.39;100247.72;251806;1105;115999;-62
2021/03/18 05:44:29;;;;;;;7.43;5.33;;;;;;;-1.03;81.18;100251.36;253507;1104;116570;-64
2021/03/18 05:49:32;;;;;;;17.62;10.40;;;;;;;-0.78;81.37;100252.42;252714;1105;116170;-63
2021/03/18 05:54:39;;;;;;;14.58;10.40;;;;;;;-0.44;80.85;100251.73;253298;1105;115379;-61
2021/03/18 05:59:44;;;;;;;13.50;9.33;;;;;;;-0.12;79.39;100249.36;252522;1105;115875;-66
2021/03/18 06:04:50;;;;;;;17.40;8.90;;;;;;;0.12;77.42;100251.31;254067;1105;115780;-67
2021/03/18 06:09:56;;;;;;;9.48;6.67;;;;;;;0.13;77.78;100252.95;253709;1104;115312;-66
2021/03/18 06:15:00;;;;;;;12.07;7.22;;;;;;;0.25;77.25;100249.11;254707;1105;115216;-67
2021/03/18 06:20:20;;;;;;;7.95;7.12;;;;;;;0.28;76.70;100254.05;251627;1105;115329;-63
2021/03/18 06:25:28;;;;;;;10.30;6.83;;;;;;;0.41;75.46;100258.02;254566;1105;115838;-68
2021/03/18 06:30:31;;;;;;;7.67;6.78;;;;;;;0.57;75.39;100258.11;254736;1104;115998;-68
2021/03/18 06:35:34;;;;;;;10.23;7.03;;;;;;;0.78;74.46;100257.69;254742;1104;114945;-70
2021/03/18 06:40:44;;;;;;;5.72;5.22;;;;;;;1.01;72.70;100256.94;254847;1104;117674;-66
2021/03/18 06:45:48;;;;;;;7.00;5.10;;;;;;;1.25;72.76;100263.21;254981;1105;115743;-65
2021/03/18 06:50:52;;;;;;;4.95;3.67;;;;;;;1.28;70.96;100262.89;254838;1104;115657;-65
2021/03/18 06:55:56;;;;;;;7.90;6.00;;;;;;;1.46;71.71;100263.59;254617;1104;115151;-64
2021/03/18 07:01:05;;;;;;;7.83;5.78;;;;;;;1.59;70.35;100253.39;255091;1105;114683;-64
2021/03/18 07:06:10;;;;;;;4.30;3.20;;;;;;;1.68;69.15;100247.16;254525;1105;115238;-64
2021/03/18 07:11:21;;;;;;;5.25;4.10;;;;;;;1.84;70.35;100258.64;254710;1104;115285;-65
2021/03/18 07:16:24;;;;;;;6.53;4.83;;;;;;;1.99;68.09;100257.00;254770;1104;115241;-65
2021/03/18 07:21:39;;;;;;;7.08;5.70;;;;;;;1.80;68.01;100257.35;254586;1105;115209;-65
2021/03/18 07:26:46;;;;;;;3.83;3.42;;;;;;;1.83;68.07;100257.84;254955;1103;115036;-65
2021/03/18 07:31:50;;;;;;;5.58;4.92;;;;;;;1.79;69.08;100261.79;254828;1105;115824;-65
2021/03/18 07:36:57;;;;;;;8.13;5.10;;;;;;;1.76;69.61;100258.67;253237;1105;115592;-65
2021/03/18 07:42:01;;;;;;;4.47;3.83;;;;;;;1.60;67.58;100257.67;253374;1105;115737;-66
2021/03/18 07:47:05;;;;;;;4.35;3.52;;;;;;;1.58;70.31;100253.56;251499;1105;115306;-65
2021/03/18 07:52:15;;;;;;;3.40;3.08;;;;;;;1.42;69.06;100251.77;252956;1105;115285;-65
2021/03/18 07:57:18;;;;;;;3.87;2.60;;;;;;;1.28;69.44;100244.51;252374;1105;115475;-63
2021/03/18 08:02:22;;;;;;;2.65;2.37;;;;;;;1.54;69.77;100239.92;253224;1105;114876;-65
2021/03/18 08:07:49;;;;;;;4.22;3.42;;;;;;;1.56;68.09;100237.95;254186;1105;114810;-66
2021/03/18 08:13:00;;;;;;;4.17;3.40;;;;;;;1.66;67.94;100245.69;252532;1105;114788;-65
2021/03/18 08:18:14;;;;;;;3.98;3.58;;;;;;;1.83;67.17;100249.97;251662;1105;115405;-66
2021/03/18 08:23:27;;;;;;;8.98;6.08;;;;;;;1.66;68.39;100246.50;252178;1105;115721;-66
2021/03/18 08:28:51;;;;;;;3.35;2.80;;;;;;;1.65;69.23;100244.86;253759;1105;114750;-69
2021/03/18 08:33:56;;;;;;;7.33;3.55;;;;;;;2.06;67.20;100236.94;251353;1105;114601;-69
2021/03/18 08:39:33;;;;;;;4.58;3.95;;;;;;;2.47;66.22;100239.44;251232;1105;115467;-68
2021/03/18 08:44:43;;;;;;;5.60;4.33;;;;;;;2.28;65.22;100232.77;254212;1105;114820;-67
2021/03/18 08:49:46;;;;;;;6.45;4.83;;;;;;;2.47;66.35;100245.52;254391;1105;115882;-67
2021/03/18 08:54:50;;;;;;;5.28;4.05;;;;;;;2.86;65.26;100250.80;251322;1105;116491;-67
2021/03/18 09:00:06;;;;;;;3.67;3.23;;;;;;;2.64;63.03;100235.77;254733;1105;115021;-67
2021/03/18 09:05:11;;;;;;;4.30;3.77;;;;;;;2.77;64.06;100236.02;254776;1104;115326;-67
2021/03/18 09:10:25;;;;;;;3.35;1.90;;;;;;;2.82;60.18;100238.96;254700;1105;115924;-65
2021/03/18 09:15:33;;;;;;;6.47;3.77;;;;;;;2.70;61.59;100233.28;254767;1105;115412;-66
2021/03/18 09:20:37;;;;;;;2.85;2.60;;;;;;;2.88;60.41;100233.02;254709;1105;116387;-65
2021/03/18 09:25:42;;;;;;;3.22;2.92;;;;;;;3.04;61.56;100224.22;251936;1105;116987;-65
2021/03/18 09:30:50;;;;;;;3.30;3.00;;;;;;;2.73;60.48;100226.85;252632;1105;116069;-67
2021/03/18 09:35:59;;;;;;;4.50;4.10;;;;;;;3.03;62.35;100223.39;253194;1105;117239;-66
2021/03/18 09:41:25;;;;;;;6.20;3.45;;;;;;;3.28;57.39;100218.77;253345;1105;116938;-65
2021/03/18 09:46:31;;;;;;;5.03;3.37;;;;;;;3.14;58.60;100216.06;253188;1105;114636;-65
2021/03/18 09:51:37;;;;;;;4.35;3.55;;;;;;;3.35;60.09;100222.36;254121;1104;114711;-65
2021/03/18 09:56:43;;;;;;;3.42;3.10;;;;;;;3.14;58.41;100219.52;252273;1105;116159;-66
2021/03/18 10:01:45;;;;;;;3.80;3.40;;;;;;;3.38;59.69;100223.79;251783;1105;116727;-66
2021/03/18 10:06:54;;;;;;;2.62;2.42;;;;;;;3.83;57.60;100216.84;251317;1105;116811;-66
2021/03/18 10:11:57;;;;;;;2.75;2.55;;;;;;;3.76;57.09;100215.91;251358;1105;116954;-66
2021/03/18 10:17:02;;;;;;;2.67;2.47;;;;;;;3.60;58.16;100209.80;251499;1105;116410;-65
2021/03/18 10:22:09;;;;;;;3.83;2.98;;;;;;;3.65;58.26;100207.45;251339;1105;117119;-66
2021/03/18 10:27:16;;;;;;;12.18;10.85;;;;;;;3.86;55.94;100195.38;253758;1105;116847;-67
2021/03/18 10:32:20;;;;;;;5.60;3.00;;;;;;;4.00;57.80;100192.74;254765;1104;115911;-67
2021/03/18 10:37:33;;;;;;;3.22;2.40;;;;;;;3.86;57.02;100193.56;254383;1105;116210;-68
2021/03/18 10:42:38;;;;;;;6.53;4.72;;;;;;;3.83;57.97;100190.47;253299;1104;116060;-67
2021/03/18 10:47:45;;;;;;;5.62;3.72;;;;;;;3.77;57.48;100188.54;254353;1104;115965;-66
2021/03/18 10:53:06;;;;;;;3.62;2.30;;;;;;;4.17;55.58;100182.85;254367;1104;115539;-65
2021/03/18 10:58:23;;;;;;;2.17;1.60;;;;;;;3.69;55.37;100179.70;254177;1105;114676;-65
2021/03/18 11:03:34;;;;;;;6.62;3.60;;;;;;;3.68;57.62;100175.43;254057;1104;115602;-65
2021/03/18 11:08:41;;;;;;;6.62;4.10;;;;;;;3.95;58.07;100178.48;254950;1104;115470;-65
2021/03/18 11:13:45;;;;;;;5.67;4.60;;;;;;;4.14;55.34;100187.67;254641;1105;114486;-66
2021/03/18 11:18:50;;;;;;;4.75;4.25;;;;;;;4.33;56.45;100166.81;254369;1105;114905;-65
2021/03/18 11:24:02;;;;;;;2.75;2.35;;;;;;;4.54;54.07;100163.44;254191;1105;115002;-68
2021/03/18 11:29:09;;;;;;;7.80;4.12;;;;;;;4.40;51.12;100149.24;253059;1105;115469;-67
2021/03/18 11:34:20;;;;;;;3.27;2.37;;;;;;;4.17;52.71;100143.27;254621;1105;114995;-68
2021/03/18 11:39:24;;;;;;;4.85;3.87;;;;;;;4.36;54.89;100149.80;253781;1105;114961;-67
2021/03/18 11:44:30;;;;;;;3.65;2.92;;;;;;;4.37;54.84;100136.41;253108;1105;114947;-66
2021/03/18 11:49:36;;;;;;;5.67;3.33;;;;;;;4.44;56.62;100131.22;251529;1105;115357;-67
2021/03/18 11:54:40;;;;;;;3.05;2.80;;;;;;;4.46;52.73;100123.94;252749;1105;115565;-65
2021/03/18 11:59:44;;;;;;;5.50;2.72;;;;;;;4.37;54.03;100111.84;251582;1105;115126;-66
2021/03/18 12:04:48;;;;;;;2.95;2.70;;;;;;;4.34;55.46;100115.66;253742;1104;114864;-67
2021/03/18 12:09:51;;;;;;;2.40;2.17;;;;;;;4.17;52.39;100106.33;252928;1105;115264;-66
2021/03/18 12:14:54;;;;;;;4.67;2.72;;;;;;;4.03;53.98;100096.60;251611;1105;115207;-68
2021/03/18 12:19:58;;;;;;;4.05;3.47;;;;;;;3.99;53.06;100095.33;251257;1105;115714;-67
2021/03/18 12:25:04;;;;;;;8.08;5.20;;;;;;;4.01;55.21;100098.60;253695;1105;114413;-65
2021/03/18 12:30:11;;;;;;;5.65;3.87;;;;;;;3.95;55.31;100094.08;252810;1105;115235;-67
2021/03/18 12:35:16;;;;;;;5.83;4.72;;;;;;;3.82;55.17;100093.89;251950;1105;114354;-68
2021/03/18 12:40:22;;;;;;;6.50;4.08;;;;;;;3.74;55.10;100086.89;254059;1104;115523;-64
2021/03/18 12:45:25;;;;;;;5.70;3.77;;;;;;;3.68;53.73;100082.33;254659;1104;115600;-64
2021/03/18 12:50:30;;;;;;;3.87;3.40;;;;;;;3.49;53.10;100077.61;254602;1105;116024;-64
2021/03/18 12:55:35;;;;;;;4.20;3.83;;;;;;;3.44;52.13;100072.05;253970;1104;115169;-64
2021/03/18 13:00:38;;;;;;;4.62;4.20;;;;;;;3.44;54.27;100072.05;254584;1105;115135;-65
2021/03/18 13:05:42;;;;;;;5.03;4.12;;;;;;;3.44;54.44;100059.70;254425;1105;115611;-66
2021/03/18 13:10:46;;;;;;;9.13;4.97;;;;;;;3.55;56.34;100058.44;254736;1104;114863;-63
2021/03/18 13:15:54;;;;;;;3.33;3.12;;;;;;;3.57;51.34;100057.27;254504;1104;115265;-66
2021/03/18 13:20:58;;;;;;;3.72;3.40;;;;;;;3.65;52.94;100049.27;254105;1105;115526;-67
2021/03/18 13:26:02;;;;;;;6.00;4.12;;;;;;;3.56;55.73;100052.17;254465;1104;114949;-66
2021/03/18 13:31:05;;;;;;;6.75;4.60;;;;;;;3.61;54.11;100055.91;254728;1104;115218;-65
2021/03/18 13:36:09;;;;;;;11.00;6.50;;;;;;;3.57;52.76;100056.45;254828;1105;115213;-66
2021/03/18 13:41:13;;;;;;;6.40;5.83;;;;;;;3.57;54.07;100044.08;254617;1104;115128;-66
2021/03/18 13:46:19;;;;;;;5.53;5.00;;;;;;;3.53;54.05;100047.26;254842;1105;115227;-66
2021/03/18 13:51:23;;;;;;;8.10;4.53;;;;;;;3.44;56.40;100038.61;254352;1104;115218;-66
2021/03/18 13:56:26;;;;;;;6.05;5.45;;;;;;;3.34;54.85;100032.81;254812;1104;115791;-66
2021/03/18 14:01:29;;;;;;;7.53;4.23;;;;;;;3.22;58.85;100039.51;253915;1105;115462;-65
2021/03/18 14:06:33;;;;;;;7.08;4.53;;;;;;;3.15;56.66;100031.50;253328;1105;114506;-62
2021/03/18 14:11:37;;;;;;;2.52;2.33;;;;;;;2.96;56.72;100024.13;254028;1105;114811;-64
2021/03/18 14:16:40;;;;;;;6.10;4.15;;;;;;;3.12;58.43;100018.69;252077;1105;115345;-62
2021/03/18 14:21:45;;;;;;;5.58;3.05;;;;;;;3.00;57.34;100012.23;252966;1104;114326;-61
2021/03/18 14:26:50;;;;;;;7.78;4.62;;;;;;;2.87;56.77;100001.48;252953;1105;114883;-66
2021/03/18 14:31:53;;;;;;;5.85;5.35;;;;;;;2.81;59.02;100024.06;252217;1105;115020;-64
2021/03/18 14:36:58;;;;;;;5.60;4.30;;;;;;;2.62;61.29;100032.45;254618;1105;114771;-65
2021/03/18 14:42:00;;;;;;;9.80;6.58;;;;;;;2.56;65.19;100022.63;254860;1105;115004;-64
2021/03/18 14:47:03;;;;;;;8.38;5.78;;;;;;;2.53;64.03;100012.45;254644;1105;115347;-64
2021/03/18 14:52:07;;;;;;;4.72;3.67;;;;;;;2.44;64.04;100011.72;254470;1105;114974;-68
2021/03/18 14:57:10;;;;;;;10.53;5.22;;;;;;;2.43;64.88;100011.89;254844;1105;114753;-67
2021/03/18 15:02:31;;;;;;;7.22;5.67;;;;;;;2.39;65.93;100002.70;254143;1105;116480;-66
2021/03/18 15:07:36;;;;;;;8.80;5.03;;;;;;;2.54;66.58;100011.45;254790;1104;116154;-65
2021/03/18 15:12:41;;;;;;;6.60;5.87;;;;;;;2.57;66.32;99990.88;254781;1105;115223;-66
2021/03/18 15:17:45;;;;;;;9.65;7.37;;;;;;;2.44;64.25;99984.59;254648;1104;115202;-67
2021/03/18 15:22:49;;;;;;;11.90;7.65;;;;;;;2.44;66.27;99981.95;254962;1105;114836;-65
2021/03/18 15:27:53;;;;;;;7.47;6.67;;;;;;;2.48;64.63;99977.95;254519;1104;116220;-65
2021/03/18 15:32:57;;;;;;;10.05;5.62;;;;;;;2.26;64.81;99971.71;254765;1104;116666;-67
2021/03/18 15:38:01;;;;;;;8.35;5.95;;;;;;;2.35;65.27;99968.03;254537;1104;114973;-66
2021/03/18 15:43:06;;;;;;;11.43;6.70;;;;;;;2.31;64.32;99964.94;254245;1105;115085;-64
2021/03/18 15:48:11;;;;;;;7.90;4.78;;;;;;;2.09;64.39;99971.02;254601;1105;115238;-66
2021/03/18 15:53:16;;;;;;;6.72;5.28;;;;;;;2.06;63.05;99966.09;254555;1104;116068;-66
2021/03/18 15:58:23;;;;;;;10.43;6.53;;;;;;;2.03;64.00;99964.63;254511;1105;114731;-65
2021/03/18 16:03:28;;;;;;;11.73;6.35;;;;;;;2.01;62.56;99965.80;254571;1104;116011;-65
2021/03/18 16:08:34;;;;;;;12.55;7.50;;;;;;;2.03;62.07;99963.81;253308;1105;114795;-65
2021/03/18 16:19:02;;;;;;;7.87;5.78;;;;;;;1.85;62.74;99958.81;253104;1099;116007;-62
2021/03/18 16:24:07;;;;;;;6.95;5.80;;;;;;;1.72;62.79;99955.13;252573;1108;114668;-63
2021/03/18 16:29:10;;;;;;;14.33;10.35;;;;;;;1.63;63.70;99957.78;251971;1108;115924;-62
2021/03/18 16:34:14;;;;;;;10.08;7.03;;;;;;;1.52;64.04;99959.98;251204;1109;115848;-61
2021/03/18 16:39:18;;;;;;;8.25;5.97;;;;;;;1.38;65.03;99964.13;251158;1109;115760;-64
2021/03/18 16:44:22;;;;;;;12.00;7.28;;;;;;;1.19;67.48;99960.11;252303;1107;115634;-62
2021/03/18 16:49:26;;;;;;;13.40;8.95;;;;;;;0.93;66.83;99956.86;251297;1109;115518;-62
2021/03/18 16:54:29;;;;;;;20.75;15.85;;;;;;;0.68;68.69;99954.28;251904;1108;116210;-62
2021/03/18 16:59:33;;;;;;;21.25;11.95;;;;;;;0.44;68.77;99956.11;251754;1108;117130;-62
2021/03/18 17:04:38;;;;;;;24.77;14.77;;;;;;;0.24;70.54;99951.19;251386;1109;116590;-61
2021/03/18 17:09:43;;;;;;;19.17;14.35;;;;;;;0.06;71.33;99960.98;252076;1108;115878;-62
2021/03/18 17:14:50;;;;;;;35.23;16.75;;;;;;;-0.18;72.79;99958.33;251121;1108;116887;-63
2021/03/18 17:19:56;;;;;;;22.58;16.65;;;;;;;-0.37;72.98;99955.02;251356;1107;116865;-61
2021/03/18 17:24:59;;;;;;;17.98;13.30;;;;;;;-0.49;73.48;99958.06;252613;1108;116339;-64
2021/03/18 17:30:09;;;;;;;13.20;9.98;;;;;;;-0.58;73.49;99951.97;252950;1108;117238;-64
2021/03/18 17:35:13;;;;;;;12.13;8.10;;;;;;;-0.68;73.33;99956.53;252554;1108;117661;-62
2021/03/18 17:40:20;;;;;;;14.53;8.50;;;;;;;-0.75;74.34;99955.51;254072;1108;116727;-64
2021/03/18 17:45:28;;;;;;;10.48;8.48;;;;;;;-0.88;73.57;99949.87;254103;1107;116107;-65
2021/03/18 17:50:32;;;;;;;15.43;9.65;;;;;;;-0.95;73.88;99952.31;253914;1107;116546;-64
2021/03/18 17:55:39;;;;;;;18.00;11.48;;;;;;;-0.94;74.10;99950.52;252908;1108;116997;-67
2021/03/18 18:00:43;;;;;;;21.42;14.23;;;;;;;-0.98;73.68;99943.95;252466;1108;117741;-63
2021/03/18 18:05:47;;;;;;;34.37;19.47;;;;;;;-1.02;73.15;99948.67;251547;1108;116132;-61
2021/03/18 18:10:51;;;;;;;22.32;14.25;;;;;;;-1.09;74.38;99940.61;251558;1108;117562;-61
2021/03/18 18:15:57;;;;;;;23.12;12.53;;;;;;;-1.18;74.21;99941.53;252095;1108;116214;-63
2021/03/18 18:21:00;;;;;;;25.97;15.80;;;;;;;-1.30;75.51;99947.19;252475;1108;116648;-61
2021/03/18 18:26:04;;;;;;;26.80;15.80;;;;;;;-1.43;75.39;99937.94;251869;1107;115667;-62
2021/03/18 18:31:09;;;;;;;35.98;19.15;;;;;;;-1.55;76.09;99938.35;252102;1108;116155;-64
2021/03/18 18:36:12;;;;;;;27.05;15.08;;;;;;;-1.73;76.57;99936.56;252110;1109;115271;-62
2021/03/18 18:41:16;;;;;;;27.20;15.27;;;;;;;-1.82;79.93;99940.08;250981;1108;196201;-60
2021/03/18 18:46:22;;;;;;;18.35;12.05;;;;;;;-1.91;79.97;99927.11;251935;1108;115837;-60
2021/03/18 18:51:27;;;;;;;20.97;12.20;;;;;;;-1.94;78.99;99925.62;251364;1108;115480;-62
2021/03/18 18:56:34;;;;;;;20.25;11.90;;;;;;;-1.95;79.01;99929.20;251252;1109;115063;-61
2021/03/18 19:01:39;;;;;;;;;;;;;;;-1.96;78.97;99926.73;251952;1108;115541;-63
2021/03/18 19:06:44;;;;;;;21.97;12.00;;;;;;;-1.99;79.17;99930.46;252879;1108;104193;-61
2021/03/18 19:11:48;;;;;;;16.23;11.10;;;;;;;-2.05;79.90;99934.48;250788;1108;115070;-63
2021/03/18 19:16:51;;;;;;;16.07;9.55;;;;;;;-2.09;80.09;99927.91;252281;1107;117845;-60
2021/03/18 19:21:56;;;;;;;16.23;10.23;;;;;;;-2.09;81.03;99932.31;251509;1108;115280;-60
2021/03/18 19:27:01;;;;;;;16.95;11.33;;;;;;;-2.08;80.86;99926.13;252486;1107;115925;-62
2021/03/18 19:32:07;;;;;;;23.12;13.60;;;;;;;-2.10;80.15;99935.90;252242;1107;116166;-62
2021/03/18 19:37:11;;;;;;;21.65;14.45;;;;;;;-2.20;80.49;99933.37;253287;1107;115026;-62
2021/03/18 19:42:15;;;;;;;21.93;12.70;;;;;;;-2.26;80.82;99935.75;253960;1108;116121;-63
2021/03/18 19:47:18;;;;;;;24.27;14.53;;;;;;;-2.28;80.28;99929.85;253987;1108;115415;-63
2021/03/18 19:52:24;;;;;;;26.27;14.33;;;;;;;-2.26;80.60;99935.75;254130;1108;115348;-64
2021/03/18 19:57:28;;;;;;;14.55;11.60;;;;;;;-2.22;78.90;99929.27;252351;1107;115462;-63
2021/03/18 20:02:31;;;;;;;17.30;11.48;;;;;;;-2.22;79.95;99931.87;254187;1107;115478;-60
2021/03/18 20:07:34;;;;;;;16.80;11.60;;;;;;;-2.27;78.61;99931.50;253713;1108;115683;-60
2021/03/18 20:12:39;;;;;;;20.20;12.10;;;;;;;-2.29;79.03;99936.86;253425;1108;115551;-62
2021/03/18 20:17:42;;;;;;;23.62;13.03;;;;;;;-2.28;79.83;99937.69;251052;1109;115995;-63
2021/03/18 20:22:46;;;;;;;21.27;13.18;;;;;;;-2.36;80.06;99941.02;250986;1109;116201;-62
2021/03/18 20:27:50;;;;;;;23.40;13.53;;;;;;;-2.42;79.41;99941.60;251778;1108;116638;-63
2021/03/18 20:32:54;;;;;;;22.37;14.35;;;;;;;-2.50;80.69;99952.80;251360;1107;118839;-64
2021/03/18 20:37:59;;;;;;;26.05;15.15;;;;;;;-2.58;81.27;99955.30;251595;1109;116323;-61
2021/03/18 20:43:02;;;;;;;24.95;15.38;;;;;;;-2.58;80.89;99949.27;252330;1108;116621;-64
2021/03/18 20:48:10;;;;;;;22.73;17.17;;;;;;;-2.55;82.30;99948.98;251337;1109;117905;-60
2021/03/18 20:53:16;;;;;;;28.93;16.70;;;;;;;-2.57;81.79;99953.52;251329;1108;116402;-60
2021/03/18 20:58:20;;;;;;;24.65;15.63;;;;;;;-2.55;81.50;99946.37;251445;1107;116145;-63
2021/03/18 21:03:24;;;;;;;20.93;13.77;;;;;;;-2.57;80.71;99938.68;251016;1109;118170;-63
2021/03/18 21:08:29;;;;;;;30.62;17.42;;;;;;;-2.55;81.79;99941.14;251308;1107;117304;-63
2021/03/18 21:13:34;;;;;;;24.63;15.68;;;;;;;-2.55;81.09;99941.97;252128;1108;116706;-63
2021/03/18 21:18:38;;;;;;;31.45;17.45;;;;;;;-2.60;80.55;99943.36;251469;1108;117044;-62
2021/03/18 21:23:42;;;;;;;32.90;19.15;;;;;;;-2.64;81.93;99942.01;250934;1109;116545;-63
2021/03/18 21:28:45;;;;;;;37.48;20.17;;;;;;;-2.76;81.21;99944.00;252963;1107;117494;-63
2021/03/18 21:33:48;;;;;;;63.38;34.98;;;;;;;-2.80;82.28;99947.86;251113;1108;116522;-61
2021/03/18 21:38:52;;;;;;;55.38;29.25;;;;;;;-2.84;82.17;99939.50;252622;1108;116771;-63
2021/03/18 21:43:56;;;;;;;60.48;28.67;;;;;;;-2.82;81.94;99939.36;252816;1108;117724;-65
2021/03/18 21:48:59;;;;;;;47.43;29.57;;;;;;;-2.80;83.02;99948.69;254016;1108;116143;-63
2021/03/18 21:54:03;;;;;;;47.70;28.75;;;;;;;-2.80;81.90;99942.64;254257;1107;116365;-60
2021/03/18 21:59:06;;;;;;;46.92;27.60;;;;;;;-2.85;82.62;99940.47;254138;1108;116716;-60
2021/03/18 22:04:11;;;;;;;46.73;27.17;;;;;;;-2.90;82.37;99934.85;253576;1108;115246;-60
2021/03/18 22:09:14;;;;;;;48.35;28.07;;;;;;;-2.89;82.01;99935.67;253342;1107;115382;-60
2021/03/18 22:14:19;;;;;;;36.95;21.07;;;;;;;-2.88;81.79;99937.31;251702;1108;115768;-61
2021/03/18 22:19:23;;;;;;;36.67;20.63;;;;;;;-2.81;81.90;99939.22;252285;1109;115374;-63
2021/03/18 22:24:29;;;;;;;41.97;23.60;;;;;;;-2.74;82.53;99936.83;251889;1109;116220;-61
2021/03/18 22:29:33;;;;;;;33.28;20.85;;;;;;;-2.74;82.23;99940.26;252253;1108;117047;-61
2021/03/18 22:34:36;;;;;;;37.35;21.17;;;;;;;-2.75;82.34;99935.19;251901;1109;118800;-63
2021/03/18 22:39:40;;;;;;;28.83;19.55;;;;;;;-2.68;81.04;99940.66;252196;1107;116725;-62
2021/03/18 22:44:48;;;;;;;29.12;18.40;;;;;;;-2.74;82.48;99931.61;251199;1109;116116;-61
2021/03/18 22:49:51;;;;;;;36.17;19.50;;;;;;;-2.71;83.09;99939.16;251343;1109;115854;-63
2021/03/18 22:54:55;;;;;;;51.43;26.70;;;;;;;-2.67;84.02;99937.08;252064;1108;115186;-64
2021/03/18 23:00:00;;;;;;;117.77;50.55;;;;;;;-2.63;83.55;99935.83;251410;1109;115451;-59
2021/03/18 23:05:06;;;;;;;86.25;46.33;;;;;;;-2.57;83.95;99932.64;252115;1109;115496;-60
2021/03/18 23:10:11;;;;;;;84.13;41.85;;;;;;;-2.55;83.34;99941.97;251240;1108;115199;-60
2021/03/18 23:15:16;;;;;;;74.47;39.25;;;;;;;-2.51;84.19;99938.10;251210;1108;116459;-62